Time;durP1;ratioP1;P1;durP2;ratioP2;P2;SDS_P1;SDS_P2;PMS_P1;PMS_P2;Temp;Humidity;BMP_temperature;BMP_pressure;BME280_temperature;BME280_humidity;BME280_pressure;Samples;Min_cycle;Max_cycle;Signal;HPM_P1;HPM_P2
2022/03/26 00:01:51;;;;;;;46.47;25.95;;;;;;;;;;5036414;28;20103;-67
2022/03/26 00:04:16;;;;;;;35.78;22.67;;;;;;;;;;5041541;28;20029;-67
2022/03/26 00:06:41;;;;;;;41.67;26.08;;;;;;;;;;5033870;28;20253;-67
2022/03/26 00:09:07;;;;;;;39.88;24.40;;;;;;;;;;5041617;28;20045;-67
2022/03/26 00:11:32;;;;;;;43.05;25.33;;;;;;;;;;5039501;28;20021;-67
2022/03/26 00:13:57;;;;;;;45.53;25.77;;;;;;;;;;5045638;28;20494;-66
2022/03/26 00:16:23;;;;;;;38.85;24.33;;;;;;;;;;5039367;28;20049;-67
2022/03/26 00:18:48;;;;;;;45.10;26.50;;;;;;;;;;5043425;28;20040;-68
2022/03/26 00:21:14;;;;;;;43.08;26.95;;;;;;;;;;5039584;28;20037;-67
2022/03/26 00:23:39;;;;;;;41.85;25.52;;;;;;;;;;5044045;28;20495;-67
2022/03/26 00:26:04;;;;;;;42.28;26.83;;;;;;;;;;5044838;28;20035;-68
2022/03/26 00:28:29;;;;;;;40.65;25.92;;;;;;;;;;5042981;28;20025;-67
2022/03/26 00:30:55;;;;;;;48.17;28.30;;;;;;;;;;5040999;28;20037;-67
2022/03/26 00:33:21;;;;;;;47.28;27.35;;;;;;;;;;5044508;28;20021;-67
2022/03/26 00:35:47;;;;;;;44.38;27.30;;;;;;;;;;5037555;28;20110;-68
2022/03/26 00:38:12;;;;;;;44.60;28.08;;;;;;;;;;5045891;28;20379;-67
2022/03/26 00:40:38;;;;;;;51.95;28.75;;;;;;;;;;5042627;28;20052;-67
2022/03/26 00:43:04;;;;;;;46.38;29.55;;;;;;;;;;5046100;28;20082;-68
2022/03/26 00:45:29;;;;;;;47.95;28.23;;;;;;;;;;5043166;28;20372;-66
2022/03/26 00:47:59;;;;;;;43.38;27.90;;;;;;;;;;5043660;28;20062;-66
2022/03/26 00:50:25;;;;;;;46.03;27.90;;;;;;;;;;5040056;28;20025;-67
2022/03/26 00:52:51;;;;;;;43.55;28.23;;;;;;;;;;5024847;28;20547;-67
2022/03/26 00:55:16;;;;;;;47.72;27.77;;;;;;;;;;5043591;28;20203;-67
2022/03/26 00:57:41;;;;;;;45.47;28.52;;;;;;;;;;5045875;28;20021;-67
2022/03/26 01:00:08;;;;;;;45.30;27.45;;;;;;;;;;5043342;28;20032;-66
2022/03/26 01:02:33;;;;;;;52.58;28.98;;;;;;;;;;5040736;28;20021;-67
2022/03/26 01:04:59;;;;;;;50.40;28.85;;;;;;;;;;5039925;28;20048;-66
2022/03/26 01:07:26;;;;;;;48.20;30.02;;;;;;;;;;5041648;28;20104;-67
2022/03/26 01:09:52;;;;;;;49.40;30.52;;;;;;;;;;5042484;28;20087;-67
2022/03/26 01:12:17;;;;;;;43.13;28.10;;;;;;;;;;5044072;28;20495;-67
2022/03/26 01:14:42;;;;;;;50.78;29.73;;;;;;;;;;5040880;28;20029;-67
2022/03/26 01:17:08;;;;;;;52.30;30.80;;;;;;;;;;5042353;28;20086;-68
2022/03/26 01:19:33;;;;;;;48.42;28.63;;;;;;;;;;5041791;28;20051;-67
2022/03/26 01:21:58;;;;;;;47.80;29.17;;;;;;;;;;5041520;28;20047;-67
2022/03/26 01:24:23;;;;;;;48.05;28.40;;;;;;;;;;5044831;28;20025;-66
2022/03/26 01:26:49;;;;;;;48.63;29.38;;;;;;;;;;5042334;28;20443;-67
2022/03/26 01:29:14;;;;;;;48.10;29.73;;;;;;;;;;5043897;28;20025;-67
2022/03/26 01:31:39;;;;;;;46.55;29.08;;;;;;;;;;5038989;28;20406;-67
2022/03/26 01:34:04;;;;;;;54.25;31.52;;;;;;;;;;5042606;28;20083;-67
2022/03/26 01:36:30;;;;;;;48.20;29.00;;;;;;;;;;5037559;28;20028;-67
2022/03/26 01:38:55;;;;;;;48.08;31.10;;;;;;;;;;5027806;28;20028;-67
2022/03/26 01:41:21;;;;;;;47.75;30.55;;;;;;;;;;5041876;28;20071;-66
2022/03/26 01:43:46;;;;;;;51.10;30.33;;;;;;;;;;5042120;28;20055;-67
2022/03/26 01:46:11;;;;;;;54.92;31.05;;;;;;;;;;5041220;28;20323;-67
2022/03/26 01:48:37;;;;;;;53.40;31.30;;;;;;;;;;5041341;28;20072;-66
2022/03/26 01:51:14;;;;;;;54.58;31.85;;;;;;;;;;5038304;28;20025;-67
2022/03/26 01:53:39;;;;;;;49.15;30.67;;;;;;;;;;5042551;28;20154;-67
2022/03/26 01:56:06;;;;;;;53.33;31.67;;;;;;;;;;5051183;28;20128;-67
2022/03/26 01:58:32;;;;;;;50.90;31.13;;;;;;;;;;5062390;28;20021;-66
2022/03/26 02:00:58;;;;;;;51.58;29.88;;;;;;;;;;5059222;28;20354;-67
2022/03/26 02:03:23;;;;;;;55.08;31.73;;;;;;;;;;5062749;28;20025;-67
2022/03/26 02:05:48;;;;;;;51.55;32.08;;;;;;;;;;5055538;28;20494;-67
2022/03/26 02:08:14;;;;;;;53.05;31.48;;;;;;;;;;5063080;28;20357;-67
2022/03/26 02:10:39;;;;;;;56.45;31.38;;;;;;;;;;5060164;28;20033;-67
2022/03/26 02:13:05;;;;;;;52.28;32.15;;;;;;;;;;5062888;28;20403;-67
2022/03/26 02:15:31;;;;;;;53.28;32.15;;;;;;;;;;5061525;28;20020;-67
2022/03/26 02:17:56;;;;;;;59.92;33.78;;;;;;;;;;5058498;28;20029;-67
2022/03/26 02:20:22;;;;;;;57.65;33.78;;;;;;;;;;5058704;28;20025;-66
2022/03/26 02:22:48;;;;;;;59.30;33.35;;;;;;;;;;5059874;28;20101;-67
2022/03/26 02:25:13;;;;;;;57.30;33.67;;;;;;;;;;5061910;28;20386;-68
2022/03/26 02:27:38;;;;;;;57.72;33.60;;;;;;;;;;5060938;28;20450;-66
2022/03/26 02:30:05;;;;;;;58.00;33.60;;;;;;;;;;5063103;28;20546;-66
2022/03/26 02:32:30;;;;;;;59.90;34.22;;;;;;;;;;5062613;28;20020;-67
2022/03/26 02:34:57;;;;;;;59.97;35.03;;;;;;;;;;5060119;28;20040;-66
2022/03/26 02:37:22;;;;;;;54.60;34.10;;;;;;;;;;5059051;28;20111;-67
2022/03/26 02:39:47;;;;;;;61.20;35.67;;;;;;;;;;5060550;28;20170;-67
2022/03/26 02:42:13;;;;;;;59.33;34.65;;;;;;;;;;5062094;28;20479;-67
2022/03/26 02:44:39;;;;;;;60.33;34.88;;;;;;;;;;5059821;28;20024;-68
2022/03/26 02:47:05;;;;;;;58.20;35.85;;;;;;;;;;5050286;28;20020;-66
2022/03/26 02:49:30;;;;;;;60.67;34.97;;;;;;;;;;5039649;28;20116;-67
2022/03/26 02:51:56;;;;;;;61.00;34.90;;;;;;;;;;5037488;28;20032;-68
2022/03/26 02:54:22;;;;;;;57.25;34.08;;;;;;;;;;5042849;28;20124;-66
2022/03/26 02:56:47;;;;;;;60.67;36.15;;;;;;;;;;5040557;28;20033;-67
2022/03/26 02:59:12;;;;;;;63.05;37.42;;;;;;;;;;5040881;28;20078;-66
2022/03/26 03:01:38;;;;;;;69.35;37.90;;;;;;;;;;5038887;28;20017;-67
2022/03/26 03:04:04;;;;;;;71.55;38.03;;;;;;;;;;5024440;28;20024;-66
2022/03/26 03:06:30;;;;;;;66.28;38.58;;;;;;;;;;5037959;28;20464;-68
2022/03/26 03:08:55;;;;;;;68.05;39.63;;;;;;;;;;5040739;28;20428;-67
2022/03/26 03:11:21;;;;;;;66.68;38.60;;;;;;;;;;5040333;28;20021;-68
2022/03/26 03:13:46;;;;;;;73.25;41.80;;;;;;;;;;5022346;28;20487;-66
2022/03/26 03:16:12;;;;;;;75.65;42.03;;;;;;;;;;5039595;28;20067;-68
2022/03/26 03:18:38;;;;;;;73.43;41.85;;;;;;;;;;5045662;28;20032;-67
2022/03/26 03:21:03;;;;;;;75.50;43.50;;;;;;;;;;5033968;28;20466;-66
2022/03/26 03:23:28;;;;;;;78.70;41.58;;;;;;;;;;5042469;28;20025;-66
2022/03/26 03:25:54;;;;;;;65.68;37.80;;;;;;;;;;5038145;28;20025;-67
2022/03/26 03:28:19;;;;;;;82.47;43.40;;;;;;;;;;5060049;28;20021;-66
2022/03/26 03:30:45;;;;;;;76.65;42.97;;;;;;;;;;5057368;28;20928;-66
2022/03/26 03:33:10;;;;;;;79.50;44.63;;;;;;;;;;5060745;28;20101;-67
2022/03/26 03:35:36;;;;;;;80.78;43.83;;;;;;;;;;5056116;28;20131;-66
2022/03/26 03:38:01;;;;;;;84.97;45.10;;;;;;;;;;5056100;28;20039;-67
2022/03/26 03:40:26;;;;;;;82.43;46.05;;;;;;;;;;5059199;28;20071;-66
2022/03/26 03:42:54;;;;;;;85.57;46.13;;;;;;;;;;5059443;28;20031;-67
2022/03/26 03:45:20;;;;;;;85.38;44.38;;;;;;;;;;5062224;28;20044;-67
2022/03/26 03:47:45;;;;;;;88.78;47.40;;;;;;;;;;5060972;28;20032;-66
2022/03/26 03:50:11;;;;;;;83.05;46.28;;;;;;;;;;5060383;28;20404;-66
2022/03/26 03:52:36;;;;;;;84.18;47.50;;;;;;;;;;5066528;28;20059;-68
2022/03/26 03:55:02;;;;;;;85.03;45.15;;;;;;;;;;5063227;28;20300;-66
2022/03/26 03:57:27;;;;;;;83.85;48.38;;;;;;;;;;5064928;28;20516;-66
2022/03/26 03:59:53;;;;;;;79.43;44.30;;;;;;;;;;5062766;28;20543;-66
2022/03/26 04:02:18;;;;;;;92.00;48.10;;;;;;;;;;5060734;28;20453;-66
2022/03/26 04:04:44;;;;;;;88.68;46.33;;;;;;;;;;5060752;28;20375;-66
2022/03/26 04:07:09;;;;;;;92.30;49.17;;;;;;;;;;5058871;28;20021;-67
2022/03/26 04:09:35;;;;;;;87.50;48.53;;;;;;;;;;5064360;28;20490;-67
2022/03/26 04:12:01;;;;;;;91.93;47.42;;;;;;;;;;5061944;28;20499;-67
2022/03/26 04:14:26;;;;;;;92.28;49.50;;;;;;;;;;5063548;28;20037;-67
2022/03/26 04:16:52;;;;;;;91.35;48.78;;;;;;;;;;5059892;28;20073;-67
2022/03/26 04:19:18;;;;;;;93.15;48.20;;;;;;;;;;5064292;28;20052;-66
2022/03/26 04:21:44;;;;;;;94.43;50.67;;;;;;;;;;5059055;28;20312;-66
2022/03/26 04:24:10;;;;;;;92.65;49.35;;;;;;;;;;5045046;28;20497;-66
2022/03/26 04:26:35;;;;;;;89.72;49.65;;;;;;;;;;5064890;28;20103;-66
2022/03/26 04:29:01;;;;;;;93.53;49.45;;;;;;;;;;5063101;28;20030;-66
2022/03/26 04:31:26;;;;;;;94.32;48.97;;;;;;;;;;5061622;28;20027;-68
2022/03/26 04:33:51;;;;;;;94.93;51.95;;;;;;;;;;5062614;28;20106;-66
2022/03/26 04:36:17;;;;;;;96.88;52.88;;;;;;;;;;5040296;28;20117;-66
2022/03/26 04:38:43;;;;;;;106.85;51.22;;;;;;;;;;5044032;28;20035;-66
2022/03/26 04:41:09;;;;;;;103.13;52.83;;;;;;;;;;5022600;28;20040;-67
2022/03/26 04:43:34;;;;;;;99.25;52.75;;;;;;;;;;5045382;28;20128;-66
2022/03/26 04:45:59;;;;;;;100.65;52.00;;;;;;;;;;5040161;28;20545;-67
2022/03/26 04:48:24;;;;;;;102.88;52.65;;;;;;;;;;5045171;28;20025;-68
2022/03/26 04:50:52;;;;;;;107.32;53.47;;;;;;;;;;5037180;28;20194;-67
2022/03/26 04:53:17;;;;;;;101.85;53.83;;;;;;;;;;5028372;28;20035;-66
2022/03/26 04:55:42;;;;;;;106.40;55.30;;;;;;;;;;5043946;28;20021;-66
2022/03/26 04:58:08;;;;;;;104.85;53.78;;;;;;;;;;5044941;28;20025;-66
2022/03/26 05:00:52;;;;;;;106.38;55.40;;;;;;;;;;5044275;28;20108;-66
2022/03/26 05:03:17;;;;;;;106.13;54.00;;;;;;;;;;5044167;28;20021;-66
2022/03/26 05:05:42;;;;;;;114.97;56.67;;;;;;;;;;5038673;28;20059;-66
2022/03/26 05:08:07;;;;;;;108.85;55.10;;;;;;;;;;5041732;28;20314;-67
2022/03/26 05:10:33;;;;;;;114.63;54.22;;;;;;;;;;5041002;28;21181;-66
2022/03/26 05:12:58;;;;;;;113.20;56.60;;;;;;;;;;5043863;28;20111;-66
2022/03/26 05:15:24;;;;;;;111.40;55.70;;;;;;;;;;5026819;28;20521;-67
2022/03/26 05:17:51;;;;;;;107.47;54.72;;;;;;;;;;5039953;28;20438;-65
2022/03/26 05:20:17;;;;;;;107.60;55.10;;;;;;;;;;5038147;28;20507;-66
2022/03/26 05:22:43;;;;;;;109.30;55.08;;;;;;;;;;5041589;28;20468;-66
2022/03/26 05:25:08;;;;;;;100.57;52.15;;;;;;;;;;5040801;28;20279;-67
2022/03/26 05:27:34;;;;;;;108.00;55.90;;;;;;;;;;5029532;28;20022;-68
2022/03/26 05:29:59;;;;;;;110.63;57.10;;;;;;;;;;5062526;28;20075;-67
2022/03/26 05:32:24;;;;;;;107.53;54.70;;;;;;;;;;5061719;28;20078;-66
2022/03/26 05:34:50;;;;;;;108.60;53.33;;;;;;;;;;5060729;28;20479;-66
2022/03/26 05:37:16;;;;;;;111.93;55.85;;;;;;;;;;5043492;28;20059;-66
2022/03/26 05:39:41;;;;;;;103.47;55.35;;;;;;;;;;5061423;28;20546;-66
2022/03/26 05:42:07;;;;;;;107.22;55.45;;;;;;;;;;5058098;28;20017;-66
2022/03/26 05:44:32;;;;;;;112.07;56.72;;;;;;;;;;5063906;28;20039;-67
2022/03/26 05:46:58;;;;;;;105.25;54.90;;;;;;;;;;5059252;28;20075;-67
2022/03/26 05:49:25;;;;;;;110.13;54.65;;;;;;;;;;5063197;28;20020;-66
2022/03/26 05:51:51;;;;;;;115.10;55.90;;;;;;;;;;5042810;28;20025;-67
2022/03/26 05:54:17;;;;;;;104.45;55.40;;;;;;;;;;5024835;28;20119;-66
2022/03/26 05:56:51;;;;;;;108.97;55.10;;;;;;;;;;5041638;28;20614;-66
2022/03/26 05:59:17;;;;;;;102.47;54.03;;;;;;;;;;5040476;28;20025;-66
2022/03/26 06:01:42;;;;;;;107.05;54.83;;;;;;;;;;5040222;28;20036;-67
2022/03/26 06:04:08;;;;;;;109.90;55.20;;;;;;;;;;5046609;28;20021;-66
2022/03/26 06:06:33;;;;;;;110.72;57.22;;;;;;;;;;5048275;28;20096;-66
2022/03/26 06:08:58;;;;;;;114.32;58.28;;;;;;;;;;5041308;28;20055;-66
2022/03/26 06:11:24;;;;;;;113.32;55.65;;;;;;;;;;5041456;28;20162;-66
2022/03/26 06:13:49;;;;;;;110.05;56.70;;;;;;;;;;5042831;28;20055;-67
2022/03/26 06:16:14;;;;;;;116.78;56.90;;;;;;;;;;5039174;28;20519;-67
2022/03/26 06:18:39;;;;;;;118.55;57.72;;;;;;;;;;5044049;28;20021;-67
2022/03/26 06:21:05;;;;;;;106.00;54.28;;;;;;;;;;5046052;28;20017;-67
2022/03/26 06:23:34;;;;;;;94.03;51.47;;;;;;;;;;5062084;28;20470;-67
2022/03/26 06:25:59;;;;;;;109.88;58.03;;;;;;;;;;5061480;28;20025;-67
2022/03/26 06:28:24;;;;;;;109.50;55.92;;;;;;;;;;5064723;28;20459;-67
2022/03/26 06:30:51;;;;;;;109.30;55.50;;;;;;;;;;5060165;28;20056;-67
2022/03/26 06:33:16;;;;;;;113.07;55.58;;;;;;;;;;5060973;28;20029;-67
2022/03/26 06:35:45;;;;;;;112.35;55.42;;;;;;;;;;5061602;28;20130;-68
2022/03/26 06:38:11;;;;;;;109.78;56.20;;;;;;;;;;5060546;28;20127;-67
2022/03/26 06:40:37;;;;;;;111.18;55.75;;;;;;;;;;5056166;28;20124;-67
2022/03/26 06:43:03;;;;;;;110.68;58.40;;;;;;;;;;5041257;28;20029;-67
2022/03/26 06:45:28;;;;;;;119.88;57.88;;;;;;;;;;5042038;28;20482;-67
2022/03/26 06:47:54;;;;;;;108.05;55.50;;;;;;;;;;5040016;28;20466;-66
2022/03/26 06:50:20;;;;;;;108.70;57.15;;;;;;;;;;5037139;28;20397;-66
2022/03/26 06:52:45;;;;;;;102.53;53.90;;;;;;;;;;5041915;28;20478;-67
2022/03/26 06:55:11;;;;;;;104.57;56.30;;;;;;;;;;5040708;28;20032;-66
2022/03/26 06:57:37;;;;;;;105.90;55.20;;;;;;;;;;5042615;28;20127;-67
2022/03/26 07:00:03;;;;;;;115.15;60.05;;;;;;;;;;5038861;28;20086;-65
2022/03/26 07:02:28;;;;;;;116.93;59.78;;;;;;;;;;5051051;28;20028;-67
2022/03/26 07:04:54;;;;;;;119.18;60.17;;;;;;;;;;5052917;28;20025;-66
2022/03/26 07:07:19;;;;;;;119.80;60.80;;;;;;;;;;5022891;28;20406;-66
2022/03/26 07:09:45;;;;;;;115.72;61.42;;;;;;;;;;5041777;28;20396;-66
2022/03/26 07:12:10;;;;;;;120.65;63.90;;;;;;;;;;5038702;28;20033;-66
2022/03/26 07:14:35;;;;;;;118.95;62.78;;;;;;;;;;5043032;28;20063;-67
2022/03/26 07:17:01;;;;;;;124.43;62.47;;;;;;;;;;5038283;28;20028;-66
2022/03/26 07:19:27;;;;;;;124.28;62.33;;;;;;;;;;5033184;28;20079;-67
2022/03/26 07:21:53;;;;;;;124.40;64.53;;;;;;;;;;5054132;28;20024;-67
2022/03/26 07:24:18;;;;;;;119.30;63.45;;;;;;;;;;5060991;28;20283;-67
2022/03/26 07:26:43;;;;;;;112.55;59.95;;;;;;;;;;5061607;28;20021;-67
2022/03/26 07:29:08;;;;;;;115.45;61.65;;;;;;;;;;5058954;28;20556;-67
2022/03/26 07:31:34;;;;;;;112.95;61.10;;;;;;;;;;5058910;28;20086;-66
2022/03/26 07:34:00;;;;;;;114.07;60.33;;;;;;;;;;5061382;28;20209;-66
2022/03/26 07:36:25;;;;;;;113.68;59.97;;;;;;;;;;5039338;28;20025;-67
2022/03/26 07:38:51;;;;;;;106.10;56.58;;;;;;;;;;5061623;28;20406;-66
2022/03/26 07:41:16;;;;;;;106.43;58.10;;;;;;;;;;5057465;28;20021;-67
2022/03/26 07:43:42;;;;;;;108.03;60.08;;;;;;;;;;5042543;28;20092;-67
2022/03/26 07:46:07;;;;;;;104.68;58.25;;;;;;;;;;5039107;28;20404;-67
2022/03/26 07:48:32;;;;;;;99.82;56.15;;;;;;;;;;5042092;28;20025;-66
2022/03/26 07:50:58;;;;;;;98.00;57.13;;;;;;;;;;5036411;28;20654;-67
2022/03/26 07:53:25;;;;;;;101.65;58.33;;;;;;;;;;5039533;28;20371;-67
2022/03/26 07:55:50;;;;;;;104.53;56.95;;;;;;;;;;5041020;28;20044;-66
2022/03/26 07:58:16;;;;;;;99.93;55.95;;;;;;;;;;5039218;28;20029;-66
2022/03/26 08:00:41;;;;;;;101.65;56.47;;;;;;;;;;5037777;28;20360;-67
2022/03/26 08:03:06;;;;;;;97.38;54.78;;;;;;;;;;5039968;28;20112;-66
2022/03/26 08:05:32;;;;;;;87.10;52.33;;;;;;;;;;5037392;28;20112;-66
2022/03/26 08:07:57;;;;;;;78.97;47.53;;;;;;;;;;5024443;28;20055;-66
2022/03/26 08:10:22;;;;;;;97.55;49.08;;;;;;;;;;5041078;28;20511;-67
2022/03/26 08:12:48;;;;;;;78.97;46.47;;;;;;;;;;5043680;28;20029;-67
2022/03/26 08:15:13;;;;;;;80.20;45.50;;;;;;;;;;5040239;28;20503;-66
2022/03/26 08:17:38;;;;;;;74.38;43.78;;;;;;;;;;5038457;28;20021;-67
2022/03/26 08:20:04;;;;;;;66.45;40.67;;;;;;;;;;5034920;28;20082;-66
2022/03/26 08:22:30;;;;;;;74.55;40.80;;;;;;;;;;5024532;28;20036;-67
2022/03/26 08:24:55;;;;;;;66.47;39.72;;;;;;;;;;5042818;28;20844;-67
2022/03/26 08:27:22;;;;;;;63.90;37.30;;;;;;;;;;5037376;28;20704;-66
2022/03/26 08:29:49;;;;;;;71.43;40.03;;;;;;;;;;5043538;28;20036;-66
2022/03/26 08:32:14;;;;;;;63.78;37.38;;;;;;;;;;5040389;28;20475;-66
2022/03/26 08:34:39;;;;;;;66.60;37.97;;;;;;;;;;5043875;28;20033;-67
2022/03/26 08:37:06;;;;;;;63.38;35.95;;;;;;;;;;5042411;28;20396;-67
2022/03/26 08:39:32;;;;;;;64.20;36.63;;;;;;;;;;5028206;28;20487;-66
2022/03/26 08:41:57;;;;;;;61.15;37.47;;;;;;;;;;5045477;28;20112;-67
2022/03/26 08:44:23;;;;;;;62.55;36.88;;;;;;;;;;5044307;28;20179;-67
2022/03/26 08:46:48;;;;;;;68.47;36.88;;;;;;;;;;5041481;28;20459;-66
2022/03/26 08:49:14;;;;;;;62.45;36.45;;;;;;;;;;5044272;28;20017;-67
2022/03/26 08:51:40;;;;;;;65.88;38.83;;;;;;;;;;5040609;28;20028;-66
2022/03/26 08:54:06;;;;;;;66.95;38.60;;;;;;;;;;5045013;28;20107;-66
2022/03/26 08:56:31;;;;;;;66.18;41.25;;;;;;;;;;5040575;28;20028;-68
2022/03/26 08:58:57;;;;;;;65.13;39.55;;;;;;;;;;5043174;28;20028;-68
2022/03/26 09:01:22;;;;;;;62.17;39.13;;;;;;;;;;5038720;28;20175;-67
2022/03/26 09:03:50;;;;;;;64.95;40.83;;;;;;;;;;5040796;28;20765;-67
2022/03/26 09:06:15;;;;;;;66.35;39.05;;;;;;;;;;5036636;28;20033;-67
2022/03/26 09:08:41;;;;;;;62.78;38.70;;;;;;;;;;5044815;28;20048;-67
2022/03/26 09:11:07;;;;;;;58.38;35.92;;;;;;;;;;5042034;28;20054;-66
2022/03/26 09:13:32;;;;;;;58.78;35.03;;;;;;;;;;5028594;28;20164;-67
2022/03/26 09:15:58;;;;;;;57.13;33.97;;;;;;;;;;5044684;28;20514;-67
2022/03/26 09:18:24;;;;;;;52.38;32.97;;;;;;;;;;5043784;28;20394;-67
2022/03/26 09:20:50;;;;;;;49.92;31.65;;;;;;;;;;5040104;28;20423;-66
2022/03/26 09:23:16;;;;;;;46.40;28.30;;;;;;;;;;5037735;28;20435;-67
2022/03/26 09:25:42;;;;;;;45.42;27.45;;;;;;;;;;5064077;28;20071;-67
2022/03/26 09:28:07;;;;;;;46.90;26.45;;;;;;;;;;5069184;28;20008;-67
2022/03/26 09:30:34;;;;;;;42.97;24.00;;;;;;;;;;5060970;28;20056;-67
2022/03/26 09:33:00;;;;;;;41.15;26.25;;;;;;;;;;5062256;28;20051;-67
2022/03/26 09:35:25;;;;;;;47.65;27.88;;;;;;;;;;5058949;28;20424;-66
2022/03/26 09:37:51;;;;;;;41.17;25.33;;;;;;;;;;5063744;28;20392;-67
2022/03/26 09:40:17;;;;;;;39.78;24.67;;;;;;;;;;5062577;28;20134;-68
2022/03/26 09:42:43;;;;;;;44.28;26.70;;;;;;;;;;5063893;28;20029;-68
2022/03/26 09:45:08;;;;;;;41.67;27.15;;;;;;;;;;5063286;28;20020;-67
2022/03/26 09:47:34;;;;;;;48.17;28.75;;;;;;;;;;5060562;28;20028;-67
2022/03/26 09:50:00;;;;;;;44.85;25.48;;;;;;;;;;5060916;28;20107;-67
2022/03/26 09:52:26;;;;;;;38.55;23.70;;;;;;;;;;5060234;28;20021;-66
2022/03/26 09:54:52;;;;;;;55.53;32.90;;;;;;;;;;5063721;28;20034;-67
2022/03/26 09:57:17;;;;;;;74.80;45.15;;;;;;;;;;5043789;28;20029;-67
2022/03/26 09:59:43;;;;;;;72.10;44.92;;;;;;;;;;5063983;28;20452;-66
2022/03/26 10:02:08;;;;;;;68.68;43.10;;;;;;;;;;5059378;28;20024;-66
2022/03/26 10:04:40;;;;;;;67.03;41.15;;;;;;;;;;5060401;28;20020;-67
2022/03/26 10:07:05;;;;;;;66.90;40.65;;;;;;;;;;5044699;28;20087;-67
2022/03/26 10:09:37;;;;;;;69.28;42.75;;;;;;;;;;5043429;28;20466;-66
2022/03/26 10:12:07;;;;;;;71.70;43.80;;;;;;;;;;5041011;28;20064;-67
2022/03/26 10:14:40;;;;;;;71.38;42.58;;;;;;;;;;5040146;28;20714;-67
2022/03/26 10:17:13;;;;;;;73.72;44.03;;;;;;;;;;5040024;28;20132;-66
2022/03/26 10:19:38;;;;;;;;;;;;;;;;;;5038124;28;20033;-66
2022/03/26 10:22:03;;;;;;;75.25;44.42;;;;;;;;;;5040923;28;19989;-66
2022/03/26 10:24:29;;;;;;;70.15;44.90;;;;;;;;;;5040873;28;20434;-67
2022/03/26 10:26:57;;;;;;;71.22;44.20;;;;;;;;;;5042071;28;20035;-68
2022/03/26 10:29:22;;;;;;;74.05;43.35;;;;;;;;;;5041106;28;20052;-66
2022/03/26 10:34:32;;;;;;;88.47;49.45;;;;;;;;;;5058467;28;20094;-66
2022/03/26 10:36:57;;;;;;;81.53;46.83;;;;;;;;;;5058519;28;20048;-66
2022/03/26 10:39:24;;;;;;;80.53;48.22;;;;;;;;;;5059669;28;20097;-67
2022/03/26 10:41:52;;;;;;;84.25;52.20;;;;;;;;;;5061322;28;20473;-67
2022/03/26 10:44:19;;;;;;;84.75;50.85;;;;;;;;;;5045386;28;20493;-67
2022/03/26 10:46:50;;;;;;;87.30;50.30;;;;;;;;;;5040005;28;20098;-67
2022/03/26 10:49:32;;;;;;;87.78;52.03;;;;;;;;;;5061215;28;20043;-67
2022/03/26 10:52:03;;;;;;;83.32;50.47;;;;;;;;;;5060822;28;20075;-67
2022/03/26 10:54:30;;;;;;;85.20;51.10;;;;;;;;;;5061341;28;20223;-66
2022/03/26 10:56:57;;;;;;;81.40;51.25;;;;;;;;;;5061426;28;20098;-65
2022/03/26 10:59:23;;;;;;;83.35;52.15;;;;;;;;;;5059347;28;20817;-66
2022/03/26 11:01:49;;;;;;;89.30;56.72;;;;;;;;;;5057576;28;20039;-66
2022/03/26 11:04:14;;;;;;;90.28;55.13;;;;;;;;;;5062884;28;20025;-67
2022/03/26 11:06:39;;;;;;;87.82;52.03;;;;;;;;;;5059066;28;20492;-67
2022/03/26 11:09:06;;;;;;;82.00;50.30;;;;;;;;;;5062955;28;20068;-67
2022/03/26 11:11:32;;;;;;;81.85;49.53;;;;;;;;;;5059983;28;20059;-66
2022/03/26 11:14:01;;;;;;;86.60;50.75;;;;;;;;;;5063621;28;20112;-66
2022/03/26 11:16:36;;;;;;;91.13;51.80;;;;;;;;;;5053766;28;20025;-66
2022/03/26 11:19:16;;;;;;;81.72;50.30;;;;;;;;;;5039966;28;20099;-66
2022/03/26 11:21:44;;;;;;;80.05;49.92;;;;;;;;;;5036703;28;20644;-68
2022/03/26 11:24:18;;;;;;;79.35;48.35;;;;;;;;;;5043821;28;20422;-67
2022/03/26 11:27:03;;;;;;;80.25;48.38;;;;;;;;;;5040597;28;20347;-67
2022/03/26 11:29:52;;;;;;;84.60;46.75;;;;;;;;;;5042711;28;20013;-67
2022/03/26 11:32:43;;;;;;;79.60;45.22;;;;;;;;;;5039559;28;20025;-68
2022/03/26 11:35:10;;;;;;;80.80;46.65;;;;;;;;;;5039037;28;20025;-66
2022/03/26 11:37:49;;;;;;;77.60;45.88;;;;;;;;;;5040742;28;20029;-67
2022/03/26 11:40:15;;;;;;;88.60;44.70;;;;;;;;;;5040442;28;20024;-66
2022/03/26 11:42:40;;;;;;;80.03;44.33;;;;;;;;;;5038624;28;20028;-68
2022/03/26 11:50:45;;;;;;;77.18;42.53;;;;;;;;;;5038026;28;20204;-66
2022/03/26 11:53:11;;;;;;;75.28;43.72;;;;;;;;;;5042645;28;20059;-65
2022/03/26 11:55:44;;;;;;;73.53;43.10;;;;;;;;;;5040547;28;20025;-68
2022/03/26 11:58:12;;;;;;;75.38;42.95;;;;;;;;;;5044104;28;20275;-67
2022/03/26 12:00:51;;;;;;;78.90;43.40;;;;;;;;;;5038257;28;20079;-68
2022/03/26 12:03:20;;;;;;;74.95;42.63;;;;;;;;;;5044938;28;20078;-68
2022/03/26 12:08:35;;;;;;;72.60;41.78;;;;;;;;;;5045474;28;20049;-69
2022/03/26 12:11:00;;;;;;;75.68;42.17;;;;;;;;;;5054218;28;20056;-68
2022/03/26 12:13:31;;;;;;;76.47;43.50;;;;;;;;;;5066843;28;20181;-68
2022/03/26 12:16:03;;;;;;;76.85;42.40;;;;;;;;;;5062959;28;20093;-68
2022/03/26 12:18:32;;;;;;;71.67;40.37;;;;;;;;;;5064992;28;20028;-67
2022/03/26 12:21:05;;;;;;;71.55;40.47;;;;;;;;;;5061683;28;20045;-68
2022/03/26 12:23:31;;;;;;;71.55;40.83;;;;;;;;;;5066434;28;20055;-68
2022/03/26 12:26:01;;;;;;;73.72;39.95;;;;;;;;;;5065169;28;20017;-69
2022/03/26 12:28:41;;;;;;;72.95;41.25;;;;;;;;;;5064223;28;20577;-69
2022/03/26 12:31:07;;;;;;;71.47;40.63;;;;;;;;;;5062088;28;20097;-69
2022/03/26 12:33:39;;;;;;;69.90;41.42;;;;;;;;;;5065738;28;20101;-68
2022/03/26 12:36:04;;;;;;;75.93;41.33;;;;;;;;;;5061895;28;20111;-68
2022/03/26 12:38:29;;;;;;;69.15;38.97;;;;;;;;;;5065104;28;20551;-69
2022/03/26 12:40:59;;;;;;;77.90;42.80;;;;;;;;;;5065512;28;20074;-70
2022/03/26 12:43:25;;;;;;;76.13;43.15;;;;;;;;;;5066503;28;20130;-68
2022/03/26 12:45:53;;;;;;;74.80;43.38;;;;;;;;;;5059237;28;20017;-68
2022/03/26 12:48:22;;;;;;;71.65;42.08;;;;;;;;;;5065590;28;20123;-69
2022/03/26 12:50:48;;;;;;;72.88;40.35;;;;;;;;;;5044699;28;20017;-69
2022/03/26 12:53:14;;;;;;;71.97;40.58;;;;;;;;;;5066644;28;20035;-68
2022/03/26 12:55:40;;;;;;;69.63;39.60;;;;;;;;;;5064351;28;20082;-69
2022/03/26 13:01:01;;;;;;;68.70;37.97;;;;;;;;;;5061340;28;20331;-69
2022/03/26 13:03:28;;;;;;;70.45;38.40;;;;;;;;;;5066515;28;20028;-69
2022/03/26 13:05:53;;;;;;;65.43;37.72;;;;;;;;;;5060583;28;20024;-68
2022/03/26 13:08:19;;;;;;;64.55;37.58;;;;;;;;;;5066222;28;20124;-69
2022/03/26 13:10:45;;;;;;;68.93;37.53;;;;;;;;;;5048385;28;20448;-68
2022/03/26 13:13:11;;;;;;;60.70;36.85;;;;;;;;;;5065953;28;20287;-68
2022/03/26 13:15:37;;;;;;;68.75;38.38;;;;;;;;;;5062683;28;20031;-70
2022/03/26 13:18:06;;;;;;;65.50;37.58;;;;;;;;;;5062655;28;20024;-70
2022/03/26 13:20:37;;;;;;;63.58;36.67;;;;;;;;;;5059232;28;20024;-69
2022/03/26 13:23:04;;;;;;;65.40;37.83;;;;;;;;;;5063497;28;20044;-68
2022/03/26 13:25:34;;;;;;;65.25;36.75;;;;;;;;;;5062296;28;20028;-70
2022/03/26 13:28:15;;;;;;;67.35;36.65;;;;;;;;;;5063767;28;20020;-70
2022/03/26 13:30:43;;;;;;;64.30;36.70;;;;;;;;;;5061103;28;20020;-69
2022/03/26 13:33:12;;;;;;;67.55;38.20;;;;;;;;;;5065552;28;20025;-70
2022/03/26 13:35:37;;;;;;;68.97;36.92;;;;;;;;;;5059523;28;20027;-68
2022/03/26 13:38:09;;;;;;;64.85;35.53;;;;;;;;;;5062689;28;20024;-68
2022/03/26 13:40:36;;;;;;;63.33;37.42;;;;;;;;;;5063072;28;20039;-68
2022/03/26 13:43:01;;;;;;;61.55;36.08;;;;;;;;;;5047506;28;20033;-70
2022/03/26 13:45:27;;;;;;;59.15;35.25;;;;;;;;;;5063032;28;20395;-69
2022/03/26 13:47:54;;;;;;;55.50;34.33;;;;;;;;;;5061722;28;20804;-68
2022/03/26 13:50:21;;;;;;;60.83;35.50;;;;;;;;;;5056511;28;20803;-68
2022/03/26 13:52:49;;;;;;;57.67;35.92;;;;;;;;;;5041119;28;20029;-69
2022/03/26 13:55:28;;;;;;;62.88;37.72;;;;;;;;;;5042074;28;20017;-68
2022/03/26 13:57:54;;;;;;;59.80;37.22;;;;;;;;;;5043000;28;20029;-69
2022/03/26 14:00:22;;;;;;;56.25;36.28;;;;;;;;;;5040932;28;20078;-69
2022/03/26 14:02:48;;;;;;;61.35;37.42;;;;;;;;;;5041696;28;20025;-68
2022/03/26 14:05:26;;;;;;;62.60;39.10;;;;;;;;;;5037849;28;20020;-68
2022/03/26 14:07:51;;;;;;;63.58;38.10;;;;;;;;;;5041110;28;20025;-68
2022/03/26 14:10:16;;;;;;;65.47;39.20;;;;;;;;;;5041054;28;20351;-68
2022/03/26 14:12:41;;;;;;;64.20;39.37;;;;;;;;;;5042201;28;20071;-69
2022/03/26 14:15:07;;;;;;;61.75;37.83;;;;;;;;;;5043565;28;20592;-70
2022/03/26 14:17:33;;;;;;;65.65;38.45;;;;;;;;;;5041322;28;20444;-69
2022/03/26 14:19:59;;;;;;;63.58;38.05;;;;;;;;;;5020608;28;20716;-68
2022/03/26 14:22:25;;;;;;;67.20;39.90;;;;;;;;;;5045547;28;20021;-68
2022/03/26 14:24:51;;;;;;;59.72;36.25;;;;;;;;;;5047687;28;20549;-69